Verhnij Baskuncak, Russia
Current Conditions -  °F | °C
As of 1:30 PM on Thursday 27 Nov 2014 (Local Time) from URWW Reporting Station
Clear Clear  
Wind Chill: 14°   Ceiling: Unl
Heat Index: 27°   Visibility: 6mi
Dew Point:   Wind: 18mph
Humidity: 31%   Direction: 70°ENE
Pressure: 30.39"   Gusts: 27mph
Location:  48.22°N, 46.73°E
Report Text: URWW 271030Z 07008G12MPS CAVOK M03/M18 Q1029 NOSIG RMK11CLRD70
Loading
Personal Weather Stations






























Interactive Weather Map New forecast layout! Learn more

10-Day Weather Forecast

Advertisements
Track Severe Weather on mobile